createdAt,value
2022-09-22T00:01:33.170Z,9.90
2022-09-22T00:04:02.088Z,9.90
2022-09-22T00:06:39.142Z,9.90
2022-09-22T00:09:07.870Z,9.90
2022-09-22T00:11:36.878Z,9.70
2022-09-22T00:14:05.148Z,9.50
2022-09-22T00:16:37.318Z,9.40
2022-09-22T00:19:07.891Z,9.40
2022-09-22T00:21:35.134Z,9.60
2022-09-22T00:24:03.136Z,9.80
2022-09-22T00:26:31.175Z,10.00
2022-09-22T00:28:58.096Z,10.00
2022-09-22T00:31:25.693Z,9.80
2022-09-22T00:34:01.532Z,9.60
2022-09-22T00:36:28.394Z,9.60
2022-09-22T00:38:56.359Z,9.50
2022-09-22T00:41:25.091Z,9.40
2022-09-22T00:44:11.790Z,9.30
2022-09-22T00:46:40.134Z,9.30
2022-09-22T00:49:08.248Z,9.30
2022-09-22T00:51:36.348Z,9.20
2022-09-22T00:54:05.000Z,9.10
2022-09-22T00:56:39.827Z,9.10
2022-09-22T00:59:09.572Z,9.10
2022-09-22T01:01:36.888Z,9.10
2022-09-22T01:04:04.043Z,9.20
2022-09-22T01:06:31.044Z,9.30
2022-09-22T01:08:58.272Z,9.40
2022-09-22T01:11:25.167Z,9.20
2022-09-22T01:13:52.822Z,9.30
2022-09-22T01:16:19.523Z,9.20
2022-09-22T01:18:56.283Z,9.10
2022-09-22T01:21:52.300Z,9.10
2022-09-22T01:24:22.090Z,9.10
2022-09-22T01:26:58.007Z,9.00
2022-09-22T01:29:33.823Z,9.20
2022-09-22T01:32:08.841Z,9.30
2022-09-22T01:34:50.732Z,9.40
2022-09-22T01:37:22.993Z,9.40
2022-09-22T01:39:53.046Z,9.60
2022-09-22T01:42:30.093Z,9.60
2022-09-22T01:44:56.937Z,9.50
2022-09-22T01:47:53.380Z,9.40
2022-09-22T01:50:25.855Z,9.40
2022-09-22T01:52:54.707Z,9.50
2022-09-22T01:55:25.010Z,9.60
2022-09-22T01:57:55.632Z,9.70
2022-09-22T02:00:23.198Z,9.70
2022-09-22T02:02:50.559Z,9.80
2022-09-22T02:05:21.061Z,9.80
2022-09-22T02:07:49.986Z,9.80
2022-09-22T02:10:18.400Z,9.90
2022-09-22T02:12:45.621Z,9.60
2022-09-22T02:15:31.994Z,9.30
2022-09-22T02:18:01.485Z,9.00
2022-09-22T02:20:28.207Z,8.80
2022-09-22T02:22:54.769Z,8.70
2022-09-22T02:25:23.480Z,8.70
2022-09-22T02:27:50.879Z,9.00
2022-09-22T02:30:17.447Z,9.00
2022-09-22T02:32:46.168Z,9.20
2022-09-22T02:35:13.360Z,9.20
2022-09-22T02:37:40.305Z,9.10
2022-09-22T02:40:07.018Z,9.10
2022-09-22T02:42:38.306Z,9.20
2022-09-22T02:45:08.084Z,9.30
2022-09-22T02:47:34.672Z,9.10
2022-09-22T02:50:02.975Z,8.90
2022-09-22T02:52:29.700Z,9.00
2022-09-22T02:54:56.626Z,9.00
2022-09-22T02:57:23.264Z,8.90
2022-09-22T02:59:49.935Z,8.60
2022-09-22T03:02:16.530Z,8.50
2022-09-22T03:04:43.384Z,8.50
2022-09-22T03:07:10.268Z,8.40
2022-09-22T03:09:36.868Z,8.50
2022-09-22T03:12:03.516Z,8.60
2022-09-22T03:14:30.253Z,8.70
2022-09-22T03:16:57.193Z,8.80
2022-09-22T03:19:23.917Z,9.00
2022-09-22T03:21:50.528Z,8.90
2022-09-22T03:24:17.092Z,8.90
2022-09-22T03:26:43.764Z,9.00
2022-09-22T03:29:10.515Z,9.00
2022-09-22T03:31:37.439Z,9.00
2022-09-22T03:34:04.121Z,8.90
2022-09-22T03:36:30.773Z,8.80
2022-09-22T03:38:57.469Z,8.90
2022-09-22T03:41:24.456Z,8.80
2022-09-22T03:43:51.173Z,8.80
2022-09-22T03:46:18.148Z,8.70
2022-09-22T03:48:45.497Z,8.60
2022-09-22T03:51:12.334Z,8.80
2022-09-22T03:53:39.221Z,8.80
2022-09-22T03:56:13.044Z,8.80
2022-09-22T03:58:40.520Z,8.80
2022-09-22T04:01:08.591Z,8.80
2022-09-22T04:03:35.812Z,8.70
2022-09-22T04:06:03.180Z,8.70
2022-09-22T04:08:30.123Z,8.80
2022-09-22T04:10:57.697Z,8.80
2022-09-22T04:13:24.932Z,8.70
2022-09-22T04:15:51.684Z,8.60
2022-09-22T04:18:18.340Z,8.50
2022-09-22T04:20:45.306Z,8.50
2022-09-22T04:23:12.541Z,8.40
2022-09-22T04:25:39.673Z,8.40
2022-09-22T04:28:06.792Z,8.40
2022-09-22T04:30:33.991Z,8.60
2022-09-22T04:33:00.694Z,8.50
2022-09-22T04:35:28.457Z,8.40
2022-09-22T04:37:55.632Z,8.40
2022-09-22T04:40:24.132Z,8.30
2022-09-22T04:42:51.115Z,8.20
2022-09-22T04:45:18.800Z,8.20
2022-09-22T04:47:46.600Z,8.30
2022-09-22T04:50:13.856Z,8.40
2022-09-22T04:52:45.292Z,8.30
2022-09-22T04:55:12.919Z,8.10
2022-09-22T04:57:39.769Z,8.10
2022-09-22T05:00:06.693Z,8.10
2022-09-22T05:02:34.371Z,8.20
2022-09-22T05:05:02.215Z,8.30
2022-09-22T05:07:29.088Z,8.30
2022-09-22T05:09:55.632Z,8.30
2022-09-22T05:12:23.247Z,8.60
2022-09-22T05:14:49.784Z,8.60
2022-09-22T05:17:16.343Z,8.50
2022-09-22T05:19:42.891Z,8.40
2022-09-22T05:22:09.979Z,8.50
2022-09-22T05:24:36.548Z,8.50
2022-09-22T05:27:03.248Z,8.50
2022-09-22T05:29:30.325Z,8.30
2022-09-22T05:31:56.877Z,8.30
2022-09-22T05:34:23.492Z,8.40
2022-09-22T05:36:50.029Z,8.50
2022-09-22T05:39:16.604Z,8.40
2022-09-22T05:41:43.197Z,8.40
2022-09-22T05:44:09.724Z,8.30
2022-09-22T05:46:36.264Z,8.40
2022-09-22T05:49:02.934Z,8.60
2022-09-22T05:51:29.467Z,8.70
2022-09-22T05:53:56.059Z,8.60
2022-09-22T05:56:22.618Z,8.60
2022-09-22T05:58:49.151Z,8.60
2022-09-22T06:01:15.735Z,8.70
2022-09-22T06:03:42.460Z,8.80
2022-09-22T06:06:09.125Z,8.70
2022-09-22T06:08:35.740Z,8.70
2022-09-22T06:11:02.320Z,8.60
2022-09-22T06:13:29.929Z,8.50
2022-09-22T06:15:56.480Z,8.50
2022-09-22T06:18:26.113Z,8.50
2022-09-22T06:20:54.099Z,8.60
2022-09-22T06:23:20.639Z,8.70
2022-09-22T06:25:47.508Z,8.80
2022-09-22T06:28:17.294Z,8.90
2022-09-22T06:30:43.878Z,9.00
2022-09-22T06:33:11.176Z,9.20
2022-09-22T06:35:38.070Z,9.10
2022-09-22T06:38:06.219Z,9.20
2022-09-22T06:40:33.529Z,9.20
2022-09-22T06:43:07.464Z,9.30
2022-09-22T06:45:34.471Z,9.50
2022-09-22T06:48:02.746Z,10.20
2022-09-22T06:50:33.820Z,11.50
2022-09-22T06:53:05.052Z,12.90
2022-09-22T06:55:31.619Z,14.60
2022-09-22T06:57:58.956Z,15.70
2022-09-22T07:00:31.274Z,17.40
2022-09-22T07:03:05.078Z,17.90
2022-09-22T07:05:32.040Z,17.50
2022-09-22T07:07:58.600Z,16.90
2022-09-22T07:10:25.242Z,16.60
2022-09-22T07:12:51.842Z,16.90
2022-09-22T07:15:18.432Z,17.00
2022-09-22T07:17:45.448Z,16.30
2022-09-22T07:20:12.773Z,15.80
2022-09-22T07:22:39.320Z,15.40
2022-09-22T07:25:09.009Z,15.00
2022-09-22T07:27:35.571Z,14.60
2022-09-22T07:30:03.397Z,14.40
2022-09-22T07:32:34.812Z,14.10
2022-09-22T07:35:01.942Z,13.90
2022-09-22T07:37:33.072Z,13.50
2022-09-22T07:40:03.266Z,13.30
2022-09-22T07:42:29.894Z,13.20
2022-09-22T07:45:15.398Z,13.10
2022-09-22T07:48:03.854Z,13.00
2022-09-22T07:50:30.565Z,12.90
2022-09-22T07:52:57.098Z,13.80
2022-09-22T07:55:25.010Z,15.70
2022-09-22T07:58:00.547Z,18.10
2022-09-22T08:00:28.682Z,21.20
2022-09-22T08:02:55.899Z,23.00
2022-09-22T08:05:23.647Z,24.70
2022-09-22T08:07:50.723Z,26.80
2022-09-22T08:10:18.109Z,27.90
2022-09-22T08:12:44.830Z,28.90
2022-09-22T08:15:12.478Z,28.70
2022-09-22T08:17:40.127Z,28.70
2022-09-22T08:20:07.709Z,28.90
2022-09-22T08:22:34.422Z,30.30
2022-09-22T08:25:00.961Z,30.80
2022-09-22T08:27:27.552Z,31.00
2022-09-22T08:29:55.009Z,32.20
2022-09-22T08:32:21.622Z,32.20
2022-09-22T08:34:48.187Z,31.80
2022-09-22T08:37:14.847Z,31.00
2022-09-22T08:39:41.380Z,31.80
2022-09-22T08:42:22.039Z,33.50
2022-09-22T08:45:17.721Z,33.50
2022-09-22T08:48:06.293Z,33.30
2022-09-22T08:50:55.287Z,34.40
2022-09-22T08:53:23.323Z,33.70
2022-09-22T08:55:55.282Z,32.40
2022-09-22T08:58:27.992Z,32.70
2022-09-22T09:01:14.937Z,31.80
2022-09-22T09:03:54.860Z,31.40
2022-09-22T09:06:30.577Z,29.80
2022-09-22T09:11:29.172Z,30.30
2022-09-22T09:14:04.319Z,30.30
2022-09-22T09:16:49.412Z,31.40
2022-09-22T09:19:18.165Z,32.60
2022-09-22T09:21:48.720Z,31.10
2022-09-22T09:27:08.917Z,31.50
2022-09-22T09:29:41.580Z,33.00
2022-09-22T09:32:14.501Z,32.30
2022-09-22T09:34:42.758Z,31.90
2022-09-22T09:37:13.460Z,33.20
2022-09-22T09:39:41.083Z,32.40
2022-09-22T09:42:20.101Z,31.50
2022-09-22T09:44:51.845Z,31.50
2022-09-22T09:47:21.958Z,32.50
2022-09-22T09:49:52.743Z,31.30
2022-09-22T09:52:20.736Z,30.60
2022-09-22T09:54:47.504Z,32.60
2022-09-22T09:57:15.221Z,31.80
2022-09-22T10:00:01.694Z,32.00
2022-09-22T10:02:28.486Z,31.70
2022-09-22T10:05:02.624Z,31.50
2022-09-22T10:10:18.361Z,31.50
2022-09-22T10:12:44.917Z,32.00
2022-09-22T10:15:23.099Z,31.60
2022-09-22T10:17:49.644Z,31.70
2022-09-22T10:20:29.522Z,32.30
2022-09-22T10:22:56.375Z,32.10
2022-09-22T10:25:27.843Z,31.10
2022-09-22T10:28:00.941Z,31.70
2022-09-22T10:30:27.736Z,30.30
2022-09-22T10:33:14.530Z,30.10
2022-09-22T10:35:45.861Z,30.20
2022-09-22T10:38:18.262Z,31.00
2022-09-22T10:40:47.616Z,31.60
2022-09-22T10:43:30.174Z,31.40
2022-09-22T10:46:03.238Z,31.20
2022-09-22T10:48:37.305Z,31.40
2022-09-22T10:51:07.026Z,32.30
2022-09-22T10:53:39.514Z,33.20
2022-09-22T10:56:18.676Z,34.10
2022-09-22T10:58:52.349Z,34.90
2022-09-22T11:01:37.720Z,34.70
2022-09-22T11:04:30.168Z,33.50
2022-09-22T11:07:18.624Z,30.70
2022-09-22T11:10:12.853Z,30.40
2022-09-22T11:12:53.540Z,30.40
2022-09-22T11:15:34.026Z,30.10
2022-09-22T11:18:12.787Z,31.80
2022-09-22T11:20:39.345Z,31.70
2022-09-22T11:23:23.012Z,32.80
2022-09-22T11:26:14.391Z,31.40
2022-09-22T11:29:00.160Z,30.90
2022-09-22T11:31:38.896Z,29.90
2022-09-22T11:34:25.694Z,29.90
2022-09-22T11:37:25.583Z,30.10
2022-09-22T11:40:07.376Z,29.80
2022-09-22T11:42:43.268Z,29.10
2022-09-22T11:45:22.394Z,29.40
2022-09-22T11:47:59.747Z,31.20
2022-09-22T11:50:41.139Z,32.10
2022-09-22T11:53:07.739Z,32.10
2022-09-22T11:55:36.664Z,31.70
2022-09-22T11:58:08.241Z,30.80
2022-09-22T12:00:51.471Z,31.40
2022-09-22T12:03:23.177Z,32.00
2022-09-22T12:05:53.432Z,32.80
2022-09-22T12:08:24.133Z,32.20
2022-09-22T12:10:51.927Z,30.80
2022-09-22T12:13:20.700Z,31.00
2022-09-22T12:16:09.497Z,31.30
2022-09-22T12:18:39.193Z,29.30
2022-09-22T12:21:06.548Z,29.00
2022-09-22T12:23:37.581Z,30.40
2022-09-22T12:26:06.113Z,30.10
2022-09-22T12:28:37.629Z,29.60
2022-09-22T12:31:08.041Z,29.70
2022-09-22T12:33:36.139Z,29.20
2022-09-22T12:36:03.868Z,29.30
2022-09-22T12:38:31.468Z,30.30
2022-09-22T12:40:59.912Z,30.90
2022-09-22T12:43:26.920Z,31.80
2022-09-22T12:45:54.966Z,32.20
2022-09-22T12:48:28.009Z,32.00
2022-09-22T12:51:14.480Z,32.10
2022-09-22T12:53:43.739Z,31.50
2022-09-22T12:56:30.996Z,29.70
2022-09-22T12:58:57.607Z,29.40
2022-09-22T13:01:28.845Z,31.30
2022-09-22T13:04:04.744Z,32.70
2022-09-22T13:06:31.268Z,31.70
2022-09-22T13:08:57.787Z,30.70
2022-09-22T13:11:43.335Z,29.10
2022-09-22T13:14:42.612Z,28.50
2022-09-22T13:17:28.073Z,28.30
2022-09-22T13:19:55.910Z,27.80
2022-09-22T13:22:22.544Z,28.10
2022-09-22T13:24:49.136Z,28.90
2022-09-22T13:27:15.676Z,28.70
2022-09-22T13:29:56.715Z,27.80
2022-09-22T13:32:26.856Z,27.10
2022-09-22T13:34:53.798Z,27.40
2022-09-22T13:37:24.145Z,27.80
2022-09-22T13:39:52.053Z,27.10
2022-09-22T13:42:23.859Z,27.10
2022-09-22T13:44:55.674Z,27.90
2022-09-22T13:47:23.285Z,27.90
2022-09-22T13:49:53.072Z,27.40
2022-09-22T13:52:21.885Z,26.70
2022-09-22T13:54:51.586Z,26.20
2022-09-22T13:57:21.730Z,25.70
2022-09-22T13:59:48.688Z,25.10
2022-09-22T14:02:19.489Z,24.30
2022-09-22T14:04:50.797Z,23.50
2022-09-22T14:07:17.875Z,23.20
2022-09-22T14:09:44.813Z,22.80
2022-09-22T14:12:11.607Z,22.40
2022-09-22T14:14:40.115Z,22.30
2022-09-22T14:17:24.820Z,22.20
2022-09-22T14:20:00.190Z,22.00
2022-09-22T14:22:27.779Z,21.90
2022-09-22T14:24:55.508Z,21.90
2022-09-22T14:27:28.207Z,21.90
2022-09-22T14:29:55.495Z,21.70
2022-09-22T14:32:33.743Z,21.70
2022-09-22T14:35:02.675Z,21.70
2022-09-22T14:37:40.161Z,21.40
2022-09-22T14:40:17.128Z,21.50
2022-09-22T14:42:55.080Z,21.50
2022-09-22T14:45:21.910Z,21.60
2022-09-22T14:48:08.795Z,21.50
2022-09-22T14:50:38.480Z,21.50
2022-09-22T14:53:25.380Z,21.40
2022-09-22T14:55:53.417Z,21.20
2022-09-22T14:58:30.443Z,21.20
2022-09-22T15:01:15.538Z,21.20
2022-09-22T15:03:43.775Z,21.30
2022-09-22T15:06:14.119Z,21.50
2022-09-22T15:08:42.067Z,21.40
2022-09-22T15:11:09.088Z,21.20
2022-09-22T15:13:40.696Z,21.00
2022-09-22T15:16:27.302Z,20.90
2022-09-22T15:18:53.855Z,20.90
2022-09-22T15:21:28.935Z,21.00
2022-09-22T15:23:56.687Z,21.00
2022-09-22T15:26:27.193Z,20.90
2022-09-22T15:28:55.212Z,20.90
2022-09-22T15:31:28.410Z,20.90
2022-09-22T15:33:56.235Z,20.90
2022-09-22T15:36:23.327Z,21.10
2022-09-22T15:38:50.277Z,21.10
2022-09-22T15:41:17.217Z,21.10
2022-09-22T15:43:44.196Z,21.20
2022-09-22T15:46:28.076Z,21.20
2022-09-22T15:48:59.412Z,21.30
2022-09-22T15:51:26.942Z,21.10
2022-09-22T15:53:53.656Z,21.00
2022-09-22T15:56:20.681Z,20.90
2022-09-22T15:58:49.233Z,20.90
2022-09-22T16:01:17.639Z,21.10
2022-09-22T16:03:44.278Z,20.80
2022-09-22T16:06:12.838Z,20.70
2022-09-22T16:08:44.516Z,20.70
2022-09-22T16:11:15.388Z,20.70
2022-09-22T16:13:42.264Z,20.60
2022-09-22T16:16:10.362Z,20.50
2022-09-22T16:18:39.349Z,20.40
2022-09-22T16:21:07.051Z,20.40
2022-09-22T16:23:34.154Z,20.40
2022-09-22T16:26:00.700Z,20.60
2022-09-22T16:28:27.251Z,20.50
2022-09-22T16:30:53.816Z,20.20
2022-09-22T16:33:20.917Z,20.10
2022-09-22T16:35:47.997Z,20.00
2022-09-22T16:38:14.595Z,19.90
2022-09-22T16:40:41.243Z,19.90
2022-09-22T16:43:08.909Z,19.90
2022-09-22T16:45:54.014Z,19.80
2022-09-22T16:48:20.564Z,19.60
2022-09-22T16:50:47.097Z,19.50
2022-09-22T16:53:14.245Z,19.30
2022-09-22T16:55:47.688Z,19.30
2022-09-22T16:58:14.741Z,19.20
2022-09-22T17:00:41.647Z,19.10
2022-09-22T17:03:08.268Z,19.10
2022-09-22T17:05:37.920Z,19.10
2022-09-22T17:08:06.883Z,19.00
2022-09-22T17:10:35.508Z,18.90
2022-09-22T17:13:04.701Z,18.80
2022-09-22T17:15:35.882Z,18.70
2022-09-22T17:18:03.948Z,18.50
2022-09-22T17:20:30.533Z,18.50
2022-09-22T17:22:57.460Z,18.60
2022-09-22T17:25:27.830Z,18.80
2022-09-22T17:27:54.453Z,19.00
2022-09-22T17:30:21.372Z,19.00
2022-09-22T17:32:48.389Z,18.70
2022-09-22T17:35:15.090Z,18.50
2022-09-22T17:37:41.840Z,18.40
2022-09-22T17:40:08.804Z,18.30
2022-09-22T17:42:37.543Z,18.10
2022-09-22T17:45:07.230Z,18.00
2022-09-22T17:47:52.550Z,18.00
2022-09-22T17:50:37.557Z,18.10
2022-09-22T17:53:22.443Z,18.00
2022-09-22T17:55:49.005Z,17.70
2022-09-22T17:58:15.539Z,17.60
2022-09-22T18:00:42.103Z,17.50
2022-09-22T18:03:08.806Z,17.60
2022-09-22T18:05:38.734Z,17.60
2022-09-22T18:08:05.260Z,17.60
2022-09-22T18:10:34.923Z,17.40
2022-09-22T18:13:02.255Z,17.30
2022-09-22T18:15:29.204Z,17.20
2022-09-22T18:17:57.917Z,17.10
2022-09-22T18:20:25.561Z,17.00
2022-09-22T18:22:52.169Z,17.00
2022-09-22T18:25:19.535Z,16.90
2022-09-22T18:27:48.321Z,16.80
2022-09-22T18:30:16.365Z,16.80
2022-09-22T18:32:43.015Z,16.80
2022-09-22T18:35:09.641Z,16.90
2022-09-22T18:37:36.204Z,16.80
2022-09-22T18:40:03.278Z,16.80
2022-09-22T18:42:32.311Z,16.70
2022-09-22T18:44:58.905Z,16.60
2022-09-22T18:47:26.160Z,16.50
2022-09-22T18:49:52.780Z,16.40
2022-09-22T18:52:22.903Z,16.40
2022-09-22T18:54:51.787Z,16.60
2022-09-22T18:57:18.458Z,16.60
2022-09-22T18:59:45.001Z,16.60
2022-09-22T19:02:12.284Z,16.60
2022-09-22T19:04:39.287Z,16.60
2022-09-22T19:07:24.786Z,16.50
2022-09-22T19:09:52.841Z,16.50
2022-09-22T19:12:21.478Z,16.40
2022-09-22T19:14:54.484Z,16.50
2022-09-22T19:17:21.293Z,16.40
2022-09-22T19:19:48.989Z,16.40
2022-09-22T19:22:16.252Z,16.30
2022-09-22T19:24:44.743Z,16.20
2022-09-22T19:27:12.492Z,15.90
2022-09-22T19:29:39.456Z,15.70
2022-09-22T19:32:07.300Z,15.80
2022-09-22T19:34:36.145Z,15.80
2022-09-22T19:37:03.111Z,15.40
2022-09-22T19:39:32.079Z,15.10
2022-09-22T19:41:58.972Z,15.20
2022-09-22T19:44:27.088Z,15.20
2022-09-22T19:46:53.806Z,15.20
2022-09-22T19:49:21.817Z,15.30
2022-09-22T19:51:48.632Z,15.30
2022-09-22T19:54:15.256Z,15.20
2022-09-22T19:56:41.883Z,15.20
2022-09-22T19:59:08.491Z,15.10
2022-09-22T20:01:40.210Z,14.90
2022-09-22T20:04:09.812Z,14.90
2022-09-22T20:06:36.564Z,15.00
2022-09-22T20:09:04.588Z,14.90
2022-09-22T20:11:38.572Z,14.70
2022-09-22T20:14:22.039Z,14.60
2022-09-22T20:16:51.107Z,14.80
2022-09-22T20:19:18.412Z,14.70
2022-09-22T20:21:45.829Z,14.50
2022-09-22T20:24:13.739Z,14.50
2022-09-22T20:26:41.445Z,14.60
2022-09-22T20:29:09.428Z,14.40
2022-09-22T20:31:36.688Z,14.40
2022-09-22T20:34:05.506Z,14.30
2022-09-22T20:36:37.223Z,14.30
2022-09-22T20:39:05.636Z,14.20
2022-09-22T20:41:32.668Z,14.10
2022-09-22T20:43:59.698Z,14.30
2022-09-22T20:46:26.828Z,14.10
2022-09-22T20:48:56.599Z,14.10
2022-09-22T20:51:23.563Z,14.00
2022-09-22T20:53:50.308Z,14.00
2022-09-22T20:56:16.978Z,14.10
2022-09-22T20:58:44.796Z,14.00
2022-09-22T21:01:14.166Z,13.70
2022-09-22T21:03:41.016Z,13.60
2022-09-22T21:06:08.946Z,13.80
2022-09-22T21:08:57.992Z,13.90
2022-09-22T21:11:25.189Z,14.10
2022-09-22T21:13:53.909Z,13.90
2022-09-22T21:16:20.815Z,13.70
2022-09-22T21:18:50.898Z,13.60
2022-09-22T21:21:19.130Z,13.50
2022-09-22T21:23:48.651Z,13.40
2022-09-22T21:26:16.387Z,13.40
2022-09-22T21:28:43.588Z,13.50
2022-09-22T21:31:10.708Z,13.60
2022-09-22T21:33:37.724Z,13.60
2022-09-22T21:36:06.011Z,13.70
2022-09-22T21:38:32.776Z,13.60
2022-09-22T21:41:03.070Z,13.50
2022-09-22T21:43:29.710Z,13.40
2022-09-22T21:46:01.369Z,13.10
2022-09-22T21:48:31.672Z,13.00
2022-09-22T21:51:00.144Z,12.90
2022-09-22T21:53:27.104Z,13.20
2022-09-22T21:56:04.388Z,13.00
2022-09-22T21:58:32.803Z,12.80
2022-09-22T22:01:01.033Z,12.80
2022-09-22T22:03:30.689Z,12.90
2022-09-22T22:06:08.029Z,13.00
2022-09-22T22:08:40.537Z,13.10
2022-09-22T22:11:08.858Z,13.20
2022-09-22T22:13:36.370Z,13.00
2022-09-22T22:16:03.505Z,12.90
2022-09-22T22:18:30.488Z,12.80
2022-09-22T22:20:58.232Z,12.80
2022-09-22T22:23:28.734Z,12.80
2022-09-22T22:26:01.981Z,12.70
2022-09-22T22:28:29.515Z,12.60
2022-09-22T22:30:56.702Z,12.70
2022-09-22T22:33:23.957Z,12.60
2022-09-22T22:35:53.407Z,12.60
2022-09-22T22:38:23.411Z,12.60
2022-09-22T22:40:50.118Z,12.60
2022-09-22T22:43:17.799Z,12.50
2022-09-22T22:45:45.211Z,12.50
2022-09-22T22:48:12.655Z,12.70
2022-09-22T22:50:39.760Z,12.60
2022-09-22T22:53:08.883Z,12.70
2022-09-22T22:55:35.644Z,12.80
2022-09-22T22:58:03.153Z,12.90
2022-09-22T23:00:29.714Z,12.70
2022-09-22T23:02:57.540Z,12.50
2022-09-22T23:05:24.195Z,12.50
2022-09-22T23:07:52.075Z,12.50
2022-09-22T23:10:19.167Z,12.50
2022-09-22T23:12:46.744Z,12.40
2022-09-22T23:15:13.818Z,12.30
2022-09-22T23:17:40.725Z,12.20
2022-09-22T23:20:07.861Z,12.10
2022-09-22T23:22:37.572Z,11.90
2022-09-22T23:25:04.332Z,12.00
2022-09-22T23:27:31.290Z,12.30
2022-09-22T23:29:58.034Z,12.40
2022-09-22T23:32:25.850Z,12.50
2022-09-22T23:34:52.640Z,12.40
2022-09-22T23:37:20.350Z,12.30
2022-09-22T23:39:46.897Z,12.00
2022-09-22T23:42:13.631Z,12.10
2022-09-22T23:44:40.184Z,12.30
2022-09-22T23:47:08.044Z,12.30
2022-09-22T23:49:34.810Z,12.30
2022-09-22T23:52:01.783Z,12.20
2022-09-22T23:54:28.595Z,12.10
2022-09-22T23:56:55.514Z,12.30
2022-09-22T23:59:22.074Z,12.50
